Time;durP1;ratioP1;P1;durP2;ratioP2;P2;SDS_P1;SDS_P2;PMS_P1;PMS_P2;Temp;Humidity;BMP_temperature;BMP_pressure;BME280_temperature;BME280_humidity;BME280_pressure;Samples;Min_cycle;Max_cycle;Signal;HPM_P1;HPM_P2
2021/10/07 00:00:04;;;;;;;19.23;11.93;;;;;;;;;;5034460;28;20205;-73
2021/10/07 00:02:29;;;;;;;21.50;11.63;;;;;;;;;;5025185;28;20189;-73
2021/10/07 00:04:54;;;;;;;19.03;11.10;;;;;;;;;;5034734;28;20201;-74
2021/10/07 00:07:20;;;;;;;17.30;10.80;;;;;;;;;;5029441;28;20603;-73
2021/10/07 00:09:45;;;;;;;19.13;11.57;;;;;;;;;;5038674;28;20296;-74
2021/10/07 00:12:10;;;;;;;16.17;10.33;;;;;;;;;;5025993;28;20202;-73
2021/10/07 00:14:36;;;;;;;15.23;10.13;;;;;;;;;;5030028;28;21884;-73
2021/10/07 00:17:01;;;;;;;16.70;11.07;;;;;;;;;;5031542;28;20699;-73
2021/10/07 00:19:27;;;;;;;18.63;11.60;;;;;;;;;;5045910;28;20700;-73
2021/10/07 00:21:52;;;;;;;15.87;10.17;;;;;;;;;;5035477;28;20192;-73
2021/10/07 00:24:17;;;;;;;15.70;9.93;;;;;;;;;;5036860;28;20193;-73
2021/10/07 00:26:45;;;;;;;16.30;10.13;;;;;;;;;;5043892;28;22150;-74
2021/10/07 00:31:59;;;;;;;18.13;10.63;;;;;;;;;;5041666;28;20205;-74
2021/10/07 00:37:04;;;;;;;21.63;10.53;;;;;;;;;;5045522;28;20189;-73
2021/10/07 00:39:29;;;;;;;19.40;11.10;;;;;;;;;;5032559;28;20189;-73
2021/10/07 00:41:56;;;;;;;18.67;10.30;;;;;;;;;;5046682;28;20192;-73
2021/10/07 00:44:22;;;;;;;18.03;10.50;;;;;;;;;;5033402;28;20177;-73
2021/10/07 00:46:53;;;;;;;15.60;10.13;;;;;;;;;;5038019;28;20206;-73
2021/10/07 00:49:20;;;;;;;15.80;9.27;;;;;;;;;;5028129;28;20193;-74
2021/10/07 00:51:46;;;;;;;14.03;9.33;;;;;;;;;;5042044;28;20207;-73
2021/10/07 00:54:13;;;;;;;32.93;12.07;;;;;;;;;;5032534;28;20188;-73
2021/10/07 00:56:40;;;;;;;31.97;12.67;;;;;;;;;;5041410;28;20237;-73
2021/10/07 00:59:06;;;;;;;23.10;10.23;;;;;;;;;;5032795;28;20556;-73
2021/10/07 01:01:31;;;;;;;38.03;10.33;;;;;;;;;;5046233;28;20234;-73
2021/10/07 01:03:57;;;;;;;33.73;9.63;;;;;;;;;;5031001;28;20213;-73
2021/10/07 01:06:22;;;;;;;90.17;11.70;;;;;;;;;;5041589;28;20181;-74
2021/10/07 01:08:49;;;;;;;24.80;9.33;;;;;;;;;;5044035;28;20221;-73
2021/10/07 01:11:15;;;;;;;30.20;10.40;;;;;;;;;;5035115;28;20228;-73
2021/10/07 01:13:41;;;;;;;20.30;10.17;;;;;;;;;;5041003;28;20205;-73
2021/10/07 01:16:07;;;;;;;25.43;9.87;;;;;;;;;;5030474;28;20212;-73
2021/10/07 01:18:33;;;;;;;18.67;10.17;;;;;;;;;;5042673;28;20192;-73
2021/10/07 01:20:58;;;;;;;16.67;10.50;;;;;;;;;;5035918;28;20185;-73
2021/10/07 01:23:24;;;;;;;19.90;11.67;;;;;;;;;;5042402;28;20657;-73
2021/10/07 01:25:50;;;;;;;28.00;10.90;;;;;;;;;;5031401;28;20182;-73
2021/10/07 01:28:15;;;;;;;17.27;10.70;;;;;;;;;;5042960;28;20200;-73
2021/10/07 01:30:40;;;;;;;22.73;10.67;;;;;;;;;;5029470;28;20632;-73
2021/10/07 01:33:06;;;;;;;20.50;11.87;;;;;;;;;;5036593;28;20280;-73
2021/10/07 01:35:31;;;;;;;21.10;11.60;;;;;;;;;;5033232;28;20189;-73
2021/10/07 01:37:57;;;;;;;20.30;10.63;;;;;;;;;;5038311;28;20186;-73
2021/10/07 01:40:22;;;;;;;20.23;10.63;;;;;;;;;;5032214;28;20182;-73
2021/10/07 01:42:48;;;;;;;20.67;9.23;;;;;;;;;;5027010;28;20189;-73
2021/10/07 01:45:14;;;;;;;15.37;8.77;;;;;;;;;;5034851;28;20185;-73
2021/10/07 01:47:40;;;;;;;14.80;8.47;;;;;;;;;;5036690;28;20224;-73
2021/10/07 01:50:08;;;;;;;13.40;9.03;;;;;;;;;;5034311;28;20200;-73
2021/10/07 01:52:33;;;;;;;15.57;9.20;;;;;;;;;;5031255;28;20273;-73
2021/10/07 01:54:59;;;;;;;12.90;8.87;;;;;;;;;;5042753;28;20276;-73
2021/10/07 01:57:24;;;;;;;13.87;8.87;;;;;;;;;;5035286;28;20206;-73
2021/10/07 01:59:49;;;;;;;14.33;8.83;;;;;;;;;;5041274;28;20595;-73
2021/10/07 02:02:15;;;;;;;16.17;9.47;;;;;;;;;;5036731;28;20178;-73
2021/10/07 02:04:40;;;;;;;14.63;9.20;;;;;;;;;;5044107;28;20265;-73
2021/10/07 02:07:05;;;;;;;15.70;9.60;;;;;;;;;;5041978;28;20186;-73
2021/10/07 02:09:31;;;;;;;15.83;9.07;;;;;;;;;;5042088;28;20317;-73
2021/10/07 02:11:56;;;;;;;12.27;9.30;;;;;;;;;;5048327;28;20232;-73
2021/10/07 02:14:23;;;;;;;11.43;8.47;;;;;;;;;;5034065;28;20189;-73
2021/10/07 02:16:49;;;;;;;14.63;8.50;;;;;;;;;;5040541;28;20190;-74
2021/10/07 02:19:15;;;;;;;11.10;8.17;;;;;;;;;;5035768;28;20200;-73
2021/10/07 02:21:40;;;;;;;12.03;7.73;;;;;;;;;;5044077;28;20617;-73
2021/10/07 02:24:05;;;;;;;14.57;8.60;;;;;;;;;;5039199;28;20186;-73
2021/10/07 02:26:31;;;;;;;10.93;7.67;;;;;;;;;;5045744;28;20305;-73
2021/10/07 02:28:56;;;;;;;13.60;9.23;;;;;;;;;;5034449;28;20544;-73
2021/10/07 02:31:22;;;;;;;10.13;7.37;;;;;;;;;;5041999;28;20214;-73
2021/10/07 02:33:49;;;;;;;10.60;7.27;;;;;;;;;;5038235;28;20189;-74
2021/10/07 02:36:15;;;;;;;11.63;8.57;;;;;;;;;;5047816;28;20204;-72
2021/10/07 02:38:40;;;;;;;11.97;8.33;;;;;;;;;;5033963;28;20488;-73
2021/10/07 02:41:06;;;;;;;12.10;8.00;;;;;;;;;;5040203;28;20200;-73
2021/10/07 02:43:31;;;;;;;17.17;8.60;;;;;;;;;;5040814;28;20181;-73
2021/10/07 02:45:57;;;;;;;14.03;8.50;;;;;;;;;;5034418;28;20210;-73
2021/10/07 02:48:22;;;;;;;9.93;7.27;;;;;;;;;;5044510;28;20184;-73
2021/10/07 02:50:47;;;;;;;12.30;7.77;;;;;;;;;;5034510;28;20310;-73
2021/10/07 02:53:13;;;;;;;10.63;7.37;;;;;;;;;;5045425;28;20271;-73
2021/10/07 02:55:38;;;;;;;11.90;7.17;;;;;;;;;;5035280;28;20212;-74
2021/10/07 02:58:04;;;;;;;12.27;7.70;;;;;;;;;;5040695;28;20206;-74
2021/10/07 03:00:29;;;;;;;12.10;7.27;;;;;;;;;;5032950;28;20186;-73
2021/10/07 03:02:54;;;;;;;12.23;7.77;;;;;;;;;;5047868;28;20192;-73
2021/10/07 03:05:20;;;;;;;13.43;7.60;;;;;;;;;;5033277;28;20197;-73
2021/10/07 03:07:45;;;;;;;12.27;7.63;;;;;;;;;;5048238;28;20205;-73
2021/10/07 03:10:11;;;;;;;12.27;7.93;;;;;;;;;;5041082;28;20300;-73
2021/10/07 03:12:37;;;;;;;14.00;8.53;;;;;;;;;;5029932;28;20261;-73
2021/10/07 03:15:03;;;;;;;15.77;8.50;;;;;;;;;;5040548;28;20186;-73
2021/10/07 03:17:28;;;;;;;12.57;8.10;;;;;;;;;;5037211;28;20490;-73
2021/10/07 03:19:53;;;;;;;13.20;7.90;;;;;;;;;;5040901;28;20192;-73
2021/10/07 03:22:21;;;;;;;12.00;7.90;;;;;;;;;;5037151;28;20667;-73
2021/10/07 03:24:46;;;;;;;11.33;8.07;;;;;;;;;;5039757;28;20247;-73
2021/10/07 03:27:12;;;;;;;14.57;8.33;;;;;;;;;;5033008;28;20185;-73
2021/10/07 03:29:37;;;;;;;13.33;7.90;;;;;;;;;;5040933;28;20629;-73
2021/10/07 03:32:03;;;;;;;13.03;8.17;;;;;;;;;;5035989;28;20225;-74
2021/10/07 03:34:28;;;;;;;14.37;8.10;;;;;;;;;;5043993;28;20679;-74
2021/10/07 03:36:53;;;;;;;10.53;7.27;;;;;;;;;;5035543;28;20785;-73
2021/10/07 03:39:19;;;;;;;12.20;7.77;;;;;;;;;;5043303;28;20315;-74
2021/10/07 03:41:44;;;;;;;13.03;8.10;;;;;;;;;;5043982;28;20672;-73
2021/10/07 03:44:10;;;;;;;13.87;8.07;;;;;;;;;;5036018;28;20212;-73
2021/10/07 03:46:35;;;;;;;17.57;9.53;;;;;;;;;;5039830;28;20213;-74
2021/10/07 03:49:01;;;;;;;14.97;8.73;;;;;;;;;;5034519;28;20189;-74
2021/10/07 03:51:26;;;;;;;11.93;7.77;;;;;;;;;;5041389;28;20205;-74
2021/10/07 03:53:51;;;;;;;13.07;8.93;;;;;;;;;;5037258;28;20351;-73
2021/10/07 03:56:17;;;;;;;14.57;8.53;;;;;;;;;;5043928;28;20189;-73
2021/10/07 03:58:42;;;;;;;12.60;8.37;;;;;;;;;;5028877;28;20212;-73
2021/10/07 04:01:08;;;;;;;12.30;8.07;;;;;;;;;;5036930;28;20177;-74
2021/10/07 04:03:33;;;;;;;12.77;8.43;;;;;;;;;;5035021;28;20197;-72
2021/10/07 04:05:59;;;;;;;12.67;8.17;;;;;;;;;;5041508;28;20201;-72
2021/10/07 04:08:24;;;;;;;16.30;8.67;;;;;;;;;;5032909;28;20183;-72
2021/10/07 04:10:50;;;;;;;15.23;8.77;;;;;;;;;;5042360;28;20355;-72
2021/10/07 04:13:25;;;;;;;24.70;10.73;;;;;;;;;;5043852;28;20180;-72
2021/10/07 04:15:51;;;;;;;38.67;11.93;;;;;;;;;;5036830;28;20188;-72
2021/10/07 04:18:18;;;;;;;39.63;12.00;;;;;;;;;;5040269;28;20493;-72
2021/10/07 04:20:45;;;;;;;48.10;12.17;;;;;;;;;;5032052;28;20186;-72
2021/10/07 04:23:12;;;;;;;73.93;14.83;;;;;;;;;;5046090;28;20178;-72
2021/10/07 04:25:37;;;;;;;331.23;22.90;;;;;;;;;;5030069;28;20182;-72
2021/10/07 04:28:06;;;;;;;176.60;20.63;;;;;;;;;;5040979;28;20192;-72
2021/10/07 04:30:34;;;;;;;322.47;24.90;;;;;;;;;;5030111;28;20308;-72
2021/10/07 04:33:00;;;;;;;224.93;20.60;;;;;;;;;;5033990;28;20185;-72
2021/10/07 04:35:25;;;;;;;141.57;18.50;;;;;;;;;;5034493;28;20489;-72
2021/10/07 04:37:50;;;;;;;190.67;20.37;;;;;;;;;;5042626;28;20189;-72
2021/10/07 04:40:16;;;;;;;192.57;20.37;;;;;;;;;;5026271;28;20297;-72
2021/10/07 04:42:41;;;;;;;161.43;18.57;;;;;;;;;;5044037;28;20189;-73
2021/10/07 04:45:07;;;;;;;139.87;19.37;;;;;;;;;;5028075;28;21739;-73
2021/10/07 04:47:32;;;;;;;220.03;21.40;;;;;;;;;;5037320;28;20613;-73
2021/10/07 04:49:57;;;;;;;152.03;20.00;;;;;;;;;;4690426;28;9999759;-73
2021/10/07 04:52:23;;;;;;;70.43;15.70;;;;;;;;;;5030278;28;20205;-73
2021/10/07 04:54:48;;;;;;;141.03;18.60;;;;;;;;;;5036064;28;20555;-73
2021/10/07 04:57:14;;;;;;;82.27;16.30;;;;;;;;;;5031720;28;20213;-73
2021/10/07 04:59:39;;;;;;;132.90;18.83;;;;;;;;;;5039388;28;20208;-74
2021/10/07 05:02:05;;;;;;;104.83;17.83;;;;;;;;;;5028559;28;20181;-73
2021/10/07 05:04:31;;;;;;;77.13;16.03;;;;;;;;;;5032208;28;20213;-73
2021/10/07 05:06:56;;;;;;;48.77;13.90;;;;;;;;;;5025137;28;20185;-73
2021/10/07 05:09:21;;;;;;;157.27;21.20;;;;;;;;;;5038815;28;20229;-73
2021/10/07 05:11:46;;;;;;;123.80;18.80;;;;;;;;;;5024959;28;20209;-74
2021/10/07 05:14:12;;;;;;;41.30;14.97;;;;;;;;;;5038227;28;20192;-72
2021/10/07 05:16:37;;;;;;;33.63;14.43;;;;;;;;;;5025183;28;20254;-72
2021/10/07 05:19:02;;;;;;;69.70;16.40;;;;;;;;;;5033153;28;20184;-73
2021/10/07 05:21:28;;;;;;;34.40;13.40;;;;;;;;;;5033895;28;20254;-73
2021/10/07 05:23:53;;;;;;;57.03;15.47;;;;;;;;;;5028435;28;20319;-73
2021/10/07 05:26:18;;;;;;;36.47;14.20;;;;;;;;;;5034527;28;20185;-73
2021/10/07 05:28:44;;;;;;;43.97;13.37;;;;;;;;;;5033934;28;20266;-74
2021/10/07 05:31:10;;;;;;;34.03;12.83;;;;;;;;;;5035404;28;20201;-73
2021/10/07 05:33:36;;;;;;;120.53;18.00;;;;;;;;;;5029456;28;20282;-73
2021/10/07 05:36:01;;;;;;;43.47;14.30;;;;;;;;;;5040411;28;20189;-73
2021/10/07 05:38:27;;;;;;;38.20;13.83;;;;;;;;;;5037040;28;20193;-73
2021/10/07 05:40:52;;;;;;;52.07;14.53;;;;;;;;;;5048797;28;20217;-74
2021/10/07 05:43:18;;;;;;;51.27;13.77;;;;;;;;;;5024791;28;20648;-73
2021/10/07 05:45:43;;;;;;;37.53;13.83;;;;;;;;;;5045237;28;20264;-73
2021/10/07 05:48:09;;;;;;;78.03;15.43;;;;;;;;;;5034802;28;20334;-73
2021/10/07 05:50:34;;;;;;;155.10;19.87;;;;;;;;;;5045658;28;20201;-73
2021/10/07 05:52:59;;;;;;;220.87;22.23;;;;;;;;;;5046484;28;20527;-73
2021/10/07 05:55:25;;;;;;;69.87;15.53;;;;;;;;;;5037501;28;20529;-74
2021/10/07 05:57:50;;;;;;;178.13;20.63;;;;;;;;;;4690313;28;9999656;-74
2021/10/07 06:00:15;;;;;;;109.67;16.80;;;;;;;;;;5026872;28;20651;-73
2021/10/07 06:02:41;;;;;;;86.83;15.30;;;;;;;;;;5033244;28;20240;-73
2021/10/07 06:05:08;;;;;;;125.37;17.37;;;;;;;;;;5032254;28;20948;-74
2021/10/07 06:07:34;;;;;;;48.77;13.73;;;;;;;;;;5041228;28;20275;-74
2021/10/07 06:09:59;;;;;;;43.07;13.27;;;;;;;;;;5032861;28;20308;-74
2021/10/07 06:12:25;;;;;;;45.17;13.40;;;;;;;;;;5041360;28;20289;-74
2021/10/07 06:14:51;;;;;;;45.27;13.03;;;;;;;;;;5036911;28;20188;-74
2021/10/07 06:17:16;;;;;;;57.30;13.30;;;;;;;;;;5041391;28;20260;-74
2021/10/07 06:19:45;;;;;;;66.13;14.50;;;;;;;;;;5035342;28;20576;-74
2021/10/07 06:22:10;;;;;;;70.13;14.43;;;;;;;;;;5039588;28;20536;-74
2021/10/07 06:24:36;;;;;;;111.97;15.47;;;;;;;;;;5040892;28;20196;-74
2021/10/07 06:27:02;;;;;;;187.00;20.50;;;;;;;;;;5037139;28;20228;-74
2021/10/07 06:29:28;;;;;;;66.70;11.23;;;;;;;;;;5047597;28;20880;-73
2021/10/07 06:31:54;;;;;;;177.70;17.67;;;;;;;;;;5037767;28;20201;-74
2021/10/07 06:34:19;;;;;;;82.47;13.33;;;;;;;;;;5042497;28;20670;-73
2021/10/07 06:36:44;;;;;;;144.93;15.93;;;;;;;;;;5034411;28;20185;-73
2021/10/07 06:39:10;;;;;;;89.20;13.13;;;;;;;;;;5043848;28;20186;-72
2021/10/07 06:41:35;;;;;;;61.30;12.17;;;;;;;;;;5039528;28;20177;-73
2021/10/07 06:44:01;;;;;;;209.07;18.60;;;;;;;;;;5038400;28;20221;-73
2021/10/07 06:46:27;;;;;;;102.33;13.67;;;;;;;;;;5035115;28;20264;-73
2021/10/07 06:48:55;;;;;;;148.93;15.83;;;;;;;;;;5038203;28;20186;-73
2021/10/07 06:51:25;;;;;;;78.47;12.17;;;;;;;;;;5035308;28;20670;-72
2021/10/07 06:53:56;;;;;;;98.50;11.70;;;;;;;;;;5045396;28;21166;-72
2021/10/07 06:56:23;;;;;;;90.00;11.87;;;;;;;;;;5045924;28;20273;-72
2021/10/07 06:58:52;;;;;;;129.30;12.93;;;;;;;;;;5032586;28;20620;-73
2021/10/07 07:01:22;;;;;;;97.47;10.13;;;;;;;;;;5042159;28;20238;-73
2021/10/07 07:03:48;;;;;;;118.43;12.67;;;;;;;;;;5031052;28;20664;-73
2021/10/07 07:06:15;;;;;;;47.03;9.47;;;;;;;;;;5045945;28;20189;-73
2021/10/07 07:08:41;;;;;;;73.70;9.83;;;;;;;;;;5033477;28;20225;-73
2021/10/07 07:11:06;;;;;;;42.00;8.80;;;;;;;;;;5044370;28;20278;-73
2021/10/07 07:13:31;;;;;;;81.93;10.65;;;;;;;;;;5037211;28;20679;-73
2021/10/07 07:15:57;;;;;;;92.93;10.37;;;;;;;;;;5048590;28;20629;-73
2021/10/07 07:18:22;;;;;;;49.10;9.53;;;;;;;;;;5035544;28;20185;-74
2021/10/07 07:20:49;;;;;;;66.90;10.23;;;;;;;;;;5042408;28;20214;-73
2021/10/07 07:23:15;;;;;;;76.03;11.18;;;;;;;;;;5034840;28;20189;-73
2021/10/07 07:25:40;;;;;;;50.40;9.00;;;;;;;;;;5042738;28;20330;-73
2021/10/07 07:28:05;;;;;;;89.60;10.23;;;;;;;;;;5039650;28;20192;-73
2021/10/07 07:30:31;;;;;;;93.87;8.90;;;;;;;;;;5041040;28;20665;-74
2021/10/07 07:32:56;;;;;;;182.07;11.60;;;;;;;;;;5043121;28;20185;-73
2021/10/07 07:35:22;;;;;;;66.85;7.50;;;;;;;;;;5032233;28;20189;-73
2021/10/07 07:37:47;;;;;;;89.65;8.32;;;;;;;;;;5042944;28;20550;-73
2021/10/07 07:40:13;;;;;;;96.93;8.45;;;;;;;;;;5030451;28;20222;-73
2021/10/07 07:42:38;;;;;;;119.77;9.30;;;;;;;;;;5045414;28;20178;-73
2021/10/07 07:45:05;;;;;;;140.05;11.23;;;;;;;;;;5034612;28;20429;-73
2021/10/07 07:47:31;;;;;;;73.30;8.10;;;;;;;;;;5037976;28;20212;-73
2021/10/07 07:49:56;;;;;;;99.72;9.18;;;;;;;;;;5037298;28;20177;-73
2021/10/07 07:52:23;;;;;;;195.77;12.27;;;;;;;;;;5037834;28;20198;-73
2021/10/07 07:54:49;;;;;;;118.72;10.18;;;;;;;;;;5029995;28;20193;-73
2021/10/07 07:57:14;;;;;;;99.95;10.43;;;;;;;;;;5039057;28;20227;-73
2021/10/07 07:59:40;;;;;;;114.55;10.07;;;;;;;;;;5033348;28;20194;-73
2021/10/07 08:02:05;;;;;;;56.40;7.53;;;;;;;;;;5041187;28;20185;-73
2021/10/07 08:04:30;;;;;;;174.70;13.43;;;;;;;;;;5041884;28;20284;-73
2021/10/07 08:06:56;;;;;;;70.43;9.40;;;;;;;;;;5036479;28;20568;-73
2021/10/07 08:09:22;;;;;;;200.60;13.48;;;;;;;;;;5040787;28;20605;-73
2021/10/07 08:11:48;;;;;;;171.45;13.23;;;;;;;;;;5030211;28;20633;-73
2021/10/07 08:14:13;;;;;;;195.20;13.57;;;;;;;;;;5038056;28;20280;-73
2021/10/07 08:16:38;;;;;;;143.25;13.40;;;;;;;;;;5037351;28;20644;-74
2021/10/07 08:19:04;;;;;;;50.80;8.10;;;;;;;;;;5041058;28;20201;-74
2021/10/07 08:21:29;;;;;;;66.63;8.73;;;;;;;;;;5033862;28;20269;-73
2021/10/07 08:23:56;;;;;;;110.25;10.13;;;;;;;;;;5041320;28;20604;-74
2021/10/07 08:26:22;;;;;;;50.53;8.15;;;;;;;;;;5035517;28;20188;-74
2021/10/07 08:28:47;;;;;;;83.53;9.85;;;;;;;;;;5039035;28;20193;-74
2021/10/07 08:31:13;;;;;;;239.63;17.83;;;;;;;;;;5035568;28;20205;-74
2021/10/07 08:33:39;;;;;;;163.77;11.77;;;;;;;;;;5034889;28;20478;-74
2021/10/07 08:36:05;;;;;;;85.57;9.05;;;;;;;;;;5045080;28;20535;-74
2021/10/07 08:38:32;;;;;;;186.50;14.88;;;;;;;;;;5032730;28;20215;-73
2021/10/07 08:40:58;;;;;;;95.72;10.32;;;;;;;;;;5042650;28;20197;-74
2021/10/07 08:43:25;;;;;;;52.65;8.77;;;;;;;;;;5033301;28;20190;-73
2021/10/07 08:45:51;;;;;;;99.07;10.35;;;;;;;;;;5046631;28;20185;-74
2021/10/07 08:48:16;;;;;;;222.77;16.67;;;;;;;;;;5029638;28;20224;-73
2021/10/07 08:50:42;;;;;;;100.28;11.55;;;;;;;;;;5044440;28;20216;-73
2021/10/07 08:53:08;;;;;;;51.35;9.30;;;;;;;;;;5031408;28;20277;-74
2021/10/07 08:55:34;;;;;;;36.55;9.20;;;;;;;;;;5039709;28;20205;-74
2021/10/07 08:57:59;;;;;;;69.05;10.75;;;;;;;;;;5037423;28;20627;-74
2021/10/07 09:00:24;;;;;;;41.50;9.90;;;;;;;;;;5041987;28;20675;-74
2021/10/07 09:02:50;;;;;;;116.03;12.85;;;;;;;;;;5034969;28;20188;-75
2021/10/07 09:05:26;;;;;;;83.05;11.38;;;;;;;;;;5044554;28;20255;-73
2021/10/07 09:07:57;;;;;;;29.45;10.15;;;;;;;;;;5046773;28;20582;-74
2021/10/07 09:10:56;;;;;;;68.32;11.18;;;;;;;;;;5041558;28;20217;-74
2021/10/07 09:13:25;;;;;;;111.80;11.82;;;;;;;;;;5037005;28;20181;-73
2021/10/07 09:15:56;;;;;;;45.58;10.77;;;;;;;;;;5040125;28;20182;-74
2021/10/07 09:18:23;;;;;;;50.28;10.57;;;;;;;;;;5043940;28;20185;-73
2021/10/07 09:20:50;;;;;;;123.55;13.30;;;;;;;;;;5032954;28;20181;-73
2021/10/07 09:23:22;;;;;;;68.80;11.18;;;;;;;;;;5042849;28;20200;-74
2021/10/07 09:26:23;;;;;;;33.67;10.60;;;;;;;;;;5031158;28;20274;-74
2021/10/07 09:28:57;;;;;;;17.83;8.57;;;;;;;;;;5017011;28;20669;-73
2021/10/07 09:31:28;;;;;;;38.30;11.20;;;;;;;;;;5028495;28;20206;-73
2021/10/07 09:34:02;;;;;;;108.93;15.07;;;;;;;;;;5043027;28;20661;-73
2021/10/07 09:36:29;;;;;;;29.75;10.75;;;;;;;;;;5035518;28;20193;-73
2021/10/07 09:38:55;;;;;;;31.02;10.10;;;;;;;;;;5041034;28;20660;-73
2021/10/07 09:41:24;;;;;;;108.43;14.85;;;;;;;;;;5029829;28;20174;-73
2021/10/07 09:43:55;;;;;;;100.70;14.25;;;;;;;;;;5038780;28;20194;-73
2021/10/07 09:46:51;;;;;;;63.38;12.35;;;;;;;;;;5033364;28;20193;-73
2021/10/07 09:49:31;;;;;;;32.88;11.10;;;;;;;;;;5036524;28;20288;-74
2021/10/07 09:51:57;;;;;;;34.72;11.73;;;;;;;;;;5037251;28;20193;-74
2021/10/07 09:54:27;;;;;;;28.23;11.35;;;;;;;;;;5040928;28;20189;-74
2021/10/07 09:56:58;;;;;;;20.30;12.02;;;;;;;;;;5036596;28;20312;-73
2021/10/07 09:59:25;;;;;;;23.45;10.32;;;;;;;;;;5043710;28;20331;-75
2021/10/07 10:01:52;;;;;;;17.52;11.57;;;;;;;;;;5033763;28;20284;-74
2021/10/07 10:04:19;;;;;;;24.10;12.63;;;;;;;;;;5043667;28;20190;-75
2021/10/07 10:06:44;;;;;;;16.55;11.68;;;;;;;;;;5031531;28;20486;-74
2021/10/07 10:09:10;;;;;;;18.85;12.57;;;;;;;;;;5042000;28;20221;-74
2021/10/07 10:11:35;;;;;;;16.40;11.40;;;;;;;;;;5034634;28;20216;-75
2021/10/07 10:14:01;;;;;;;17.20;11.82;;;;;;;;;;5049029;28;20188;-74
2021/10/07 10:16:26;;;;;;;20.00;14.75;;;;;;;;;;5046099;28;20535;-75
2021/10/07 10:19:03;;;;;;;27.00;14.55;;;;;;;;;;5040713;28;20197;-74
2021/10/07 10:21:33;;;;;;;27.98;14.38;;;;;;;;;;5041898;28;20275;-74
2021/10/07 10:24:00;;;;;;;23.20;15.10;;;;;;;;;;5035515;28;20280;-74
2021/10/07 10:26:26;;;;;;;21.60;15.82;;;;;;;;;;5043337;28;20197;-74
2021/10/07 10:28:53;;;;;;;21.95;15.13;;;;;;;;;;5036384;28;20198;-74
2021/10/07 10:31:30;;;;;;;22.02;15.15;;;;;;;;;;5040119;28;20693;-74
2021/10/07 10:34:13;;;;;;;21.98;15.65;;;;;;;;;;5038810;28;20239;-75
2021/10/07 10:36:45;;;;;;;24.98;16.70;;;;;;;;;;5045669;28;20184;-74
2021/10/07 10:39:18;;;;;;;23.25;16.40;;;;;;;;;;5033438;28;20742;-77
2021/10/07 10:41:54;;;;;;;23.27;16.65;;;;;;;;;;5047898;28;20181;-75
2021/10/07 10:44:42;;;;;;;25.23;17.38;;;;;;;;;;5031455;28;20188;-75
2021/10/07 10:47:08;;;;;;;26.67;16.35;;;;;;;;;;5041896;28;20264;-74
2021/10/07 10:49:50;;;;;;;19.95;15.23;;;;;;;;;;5034795;28;20659;-76
2021/10/07 10:52:20;;;;;;;21.77;15.95;;;;;;;;;;5042986;28;20208;-74
2021/10/07 10:54:50;;;;;;;23.75;17.48;;;;;;;;;;5035841;28;20200;-74
2021/10/07 10:57:59;;;;;;;23.20;16.50;;;;;;;;;;5040181;28;20213;-74
2021/10/07 11:00:30;;;;;;;23.23;17.08;;;;;;;;;;5036037;28;20296;-74
2021/10/07 11:03:08;;;;;;;21.30;15.48;;;;;;;;;;5038575;28;20192;-75
2021/10/07 11:05:40;;;;;;;25.77;17.75;;;;;;;;;;5037276;28;20193;-75
2021/10/07 11:08:09;;;;;;;25.52;18.05;;;;;;;;;;5042123;28;20521;-75
2021/10/07 11:10:46;;;;;;;27.20;17.80;;;;;;;;;;5027515;28;20240;-74
2021/10/07 11:13:23;;;;;;;23.75;18.35;;;;;;;;;;5040877;28;20193;-75
2021/10/07 11:15:53;;;;;;;26.92;18.42;;;;;;;;;;5038263;28;20215;-75
2021/10/07 11:18:19;;;;;;;25.58;18.73;;;;;;;;;;5041261;28;20185;-74
2021/10/07 11:20:45;;;;;;;25.85;18.65;;;;;;;;;;5035841;28;20192;-75
2021/10/07 11:23:15;;;;;;;24.70;18.25;;;;;;;;;;5046466;28;20512;-75
2021/10/07 11:25:47;;;;;;;25.38;17.48;;;;;;;;;;5027366;28;20204;-75
2021/10/07 11:28:14;;;;;;;26.02;18.50;;;;;;;;;;5038099;28;20202;-76
2021/10/07 11:30:41;;;;;;;25.88;15.48;;;;;;;;;;5034360;28;20294;-75
2021/10/07 11:33:07;;;;;;;24.27;17.98;;;;;;;;;;5042792;28;20264;-76
2021/10/07 11:35:34;;;;;;;24.33;18.60;;;;;;;;;;5044220;28;20271;-75
2021/10/07 11:38:06;;;;;;;27.65;19.80;;;;;;;;;;5030190;28;20197;-76
2021/10/07 11:40:33;;;;;;;27.50;17.27;;;;;;;;;;5040528;28;20598;-75
2021/10/07 11:43:08;;;;;;;28.58;19.75;;;;;;;;;;5033331;28;20201;-76
2021/10/07 11:45:40;;;;;;;29.25;19.55;;;;;;;;;;5042169;28;20186;-76
2021/10/07 11:48:09;;;;;;;27.08;19.25;;;;;;;;;;5034059;28;21302;-76
2021/10/07 11:50:49;;;;;;;31.33;20.42;;;;;;;;;;5043326;28;20202;-75
2021/10/07 11:53:27;;;;;;;27.88;20.05;;;;;;;;;;5033499;28;20551;-75
2021/10/07 11:55:53;;;;;;;31.55;19.73;;;;;;;;;;5039715;28;20754;-75
2021/10/07 11:58:19;;;;;;;29.25;20.42;;;;;;;;;;5034523;28;20270;-75
2021/10/07 12:00:49;;;;;;;28.17;19.88;;;;;;;;;;5044715;28;20193;-76
2021/10/07 12:03:25;;;;;;;29.33;19.90;;;;;;;;;;5034135;28;20625;-76
2021/10/07 12:06:07;;;;;;;31.00;20.92;;;;;;;;;;5043764;28;20272;-75
2021/10/07 12:08:34;;;;;;;27.83;19.80;;;;;;;;;;5034323;28;20667;-75
2021/10/07 12:11:06;;;;;;;29.02;20.42;;;;;;;;;;5038536;28;20618;-76
2021/10/07 12:13:34;;;;;;;29.80;19.38;;;;;;;;;;5036981;28;20621;-77
2021/10/07 12:16:31;;;;;;;32.88;20.83;;;;;;;;;;5041412;28;20239;-76
2021/10/07 12:19:01;;;;;;;30.98;21.08;;;;;;;;;;5032631;28;20544;-75
2021/10/07 12:21:32;;;;;;;36.45;21.88;;;;;;;;;;5045665;28;20200;-76
2021/10/07 12:24:06;;;;;;;35.65;21.52;;;;;;;;;;5034955;28;20189;-75
2021/10/07 12:26:46;;;;;;;33.10;22.77;;;;;;;;;;5045754;28;20240;-76
2021/10/07 12:29:22;;;;;;;34.22;22.33;;;;;;;;;;4326114;28;10000751;-75
2021/10/07 12:31:49;;;;;;;35.58;23.70;;;;;;;;;;5040609;28;21312;-75
2021/10/07 12:34:15;;;;;;;40.13;23.63;;;;;;;;;;5025120;28;21317;-75
2021/10/07 12:36:50;;;;;;;32.33;22.10;;;;;;;;;;5032299;28;20190;-75
2021/10/07 12:39:35;;;;;;;35.83;22.63;;;;;;;;;;5028373;28;20283;-75
2021/10/07 12:42:06;;;;;;;37.78;23.70;;;;;;;;;;5032938;28;20197;-75
2021/10/07 12:44:35;;;;;;;39.67;23.67;;;;;;;;;;5026160;28;20210;-75
2021/10/07 12:47:04;;;;;;;34.78;22.65;;;;;;;;;;5035871;28;20185;-75
2021/10/07 12:49:42;;;;;;;35.75;23.35;;;;;;;;;;5032670;28;20222;-75
2021/10/07 12:52:33;;;;;;;33.25;21.58;;;;;;;;;;5035479;28;20571;-76
2021/10/07 12:55:08;;;;;;;34.28;21.10;;;;;;;;;;5033886;28;20196;-75
2021/10/07 12:57:53;;;;;;;31.63;20.45;;;;;;;;;;5038685;28;20224;-75
2021/10/07 13:00:33;;;;;;;30.77;21.05;;;;;;;;;;5028403;28;20219;-75
2021/10/07 13:03:00;;;;;;;31.48;20.48;;;;;;;;;;5033902;28;20270;-75
2021/10/07 13:05:27;;;;;;;34.15;20.33;;;;;;;;;;5028562;28;20205;-76
2021/10/07 13:07:54;;;;;;;30.85;19.63;;;;;;;;;;5036196;28;20974;-77
2021/10/07 13:10:21;;;;;;;29.52;19.65;;;;;;;;;;5029364;28;21439;-75
2021/10/07 13:12:47;;;;;;;25.67;18.30;;;;;;;;;;5038787;28;20239;-77
2021/10/07 13:15:13;;;;;;;30.10;19.73;;;;;;;;;;5037219;28;20603;-76
2021/10/07 13:17:38;;;;;;;28.17;18.75;;;;;;;;;;5034542;28;20224;-77
2021/10/07 13:20:05;;;;;;;26.58;18.15;;;;;;;;;;5035083;28;20291;-76
2021/10/07 13:22:30;;;;;;;27.52;18.42;;;;;;;;;;5026825;28;20245;-74
2021/10/07 13:24:56;;;;;;;25.33;17.95;;;;;;;;;;5036827;28;20293;-77
2021/10/07 13:27:23;;;;;;;29.40;19.65;;;;;;;;;;5023142;28;20271;-75
2021/10/07 13:29:50;;;;;;;28.15;18.67;;;;;;;;;;5039894;28;20217;-76
2021/10/07 13:32:18;;;;;;;27.50;18.65;;;;;;;;;;5034243;28;20212;-75
2021/10/07 13:34:45;;;;;;;31.30;20.73;;;;;;;;;;5032479;28;20210;-76
2021/10/07 13:37:11;;;;;;;30.58;21.25;;;;;;;;;;5028868;28;20182;-75
2021/10/07 13:39:37;;;;;;;32.05;21.48;;;;;;;;;;5035646;28;20189;-77
2021/10/07 13:42:03;;;;;;;28.23;19.50;;;;;;;;;;5026515;28;23497;-75
2021/10/07 13:44:28;;;;;;;30.63;20.00;;;;;;;;;;5036476;28;20192;-76
2021/10/07 13:46:54;;;;;;;27.98;18.83;;;;;;;;;;5033213;28;20356;-75
2021/10/07 13:49:19;;;;;;;26.27;18.23;;;;;;;;;;5033499;28;20186;-75
2021/10/07 13:51:44;;;;;;;27.75;19.38;;;;;;;;;;5043083;28;20598;-75
2021/10/07 13:54:10;;;;;;;26.38;18.73;;;;;;;;;;5036337;28;20574;-75
2021/10/07 13:56:35;;;;;;;28.25;19.13;;;;;;;;;;5043207;28;20238;-75
2021/10/07 13:59:00;;;;;;;29.65;19.42;;;;;;;;;;5031118;28;20307;-75
2021/10/07 14:01:26;;;;;;;26.20;18.05;;;;;;;;;;5032602;28;20189;-75
2021/10/07 14:03:51;;;;;;;27.70;19.15;;;;;;;;;;5032461;28;20227;-76
2021/10/07 14:06:18;;;;;;;26.13;18.48;;;;;;;;;;5034388;28;21208;-76
2021/10/07 14:08:44;;;;;;;24.35;17.77;;;;;;;;;;5034568;28;20271;-76
2021/10/07 14:11:09;;;;;;;27.42;18.88;;;;;;;;;;5037874;28;20217;-75
2021/10/07 14:13:35;;;;;;;24.83;19.08;;;;;;;;;;5026721;28;21276;-76
2021/10/07 14:16:02;;;;;;;27.73;19.80;;;;;;;;;;5041570;28;20319;-75
2021/10/07 14:18:28;;;;;;;32.58;20.95;;;;;;;;;;5039746;28;20185;-76
2021/10/07 14:20:54;;;;;;;27.70;20.25;;;;;;;;;;5030035;28;20211;-76
2021/10/07 14:23:20;;;;;;;26.23;19.25;;;;;;;;;;5030213;28;20753;-76
2021/10/07 14:25:46;;;;;;;29.55;19.40;;;;;;;;;;5027504;28;20704;-76